sensor_id;sensor_type;location;lat;lon;timestamp;P1;durP1;ratioP1;P2;durP2;ratioP2
51034;SDS011;37062;52.546;13.230;2022-07-29T00:02:02;5.18;;;2.50;;
51034;SDS011;37062;52.546;13.230;2022-07-29T00:04:29;5.72;;;2.63;;
51034;SDS011;37062;52.546;13.230;2022-07-29T00:06:58;4.88;;;2.63;;
51034;SDS011;37062;52.546;13.230;2022-07-29T00:09:25;5.45;;;2.90;;
51034;SDS011;37062;52.546;13.230;2022-07-29T00:11:52;5.53;;;2.63;;
51034;SDS011;37062;52.546;13.230;2022-07-29T00:14:21;6.30;;;2.55;;
51034;SDS011;37062;52.546;13.230;2022-07-29T00:16:48;6.95;;;3.15;;
51034;SDS011;37062;52.546;13.230;2022-07-29T00:19:15;7.40;;;2.60;;
51034;SDS011;37062;52.546;13.230;2022-07-29T00:21:42;8.02;;;2.92;;
51034;SDS011;37062;52.546;13.230;2022-07-29T00:24:10;5.72;;;2.80;;
51034;SDS011;37062;52.546;13.230;2022-07-29T00:26:37;7.82;;;3.00;;
51034;SDS011;37062;52.546;13.230;2022-07-29T00:29:04;7.53;;;2.80;;
51034;SDS011;37062;52.546;13.230;2022-07-29T00:31:31;5.82;;;2.70;;
51034;SDS011;37062;52.546;13.230;2022-07-29T00:33:58;4.13;;;2.72;;
51034;SDS011;37062;52.546;13.230;2022-07-29T00:36:25;6.88;;;3.00;;
51034;SDS011;37062;52.546;13.230;2022-07-29T00:38:51;6.00;;;3.30;;
51034;SDS011;37062;52.546;13.230;2022-07-29T00:41:19;5.68;;;3.00;;
51034;SDS011;37062;52.546;13.230;2022-07-29T00:43:46;4.18;;;2.78;;
51034;SDS011;37062;52.546;13.230;2022-07-29T00:46:13;5.28;;;3.20;;
51034;SDS011;37062;52.546;13.230;2022-07-29T00:48:40;5.50;;;3.10;;
51034;SDS011;37062;52.546;13.230;2022-07-29T00:51:07;5.63;;;3.30;;
51034;SDS011;37062;52.546;13.230;2022-07-29T00:53:35;6.03;;;3.10;;
51034;SDS011;37062;52.546;13.230;2022-07-29T00:56:02;6.55;;;3.00;;
51034;SDS011;37062;52.546;13.230;2022-07-29T00:58:31;8.05;;;3.67;;
51034;SDS011;37062;52.546;13.230;2022-07-29T01:00:58;5.85;;;3.03;;
51034;SDS011;37062;52.546;13.230;2022-07-29T01:03:30;10.07;;;3.05;;
51034;SDS011;37062;52.546;13.230;2022-07-29T01:05:57;5.85;;;2.95;;
51034;SDS011;37062;52.546;13.230;2022-07-29T01:08:27;5.90;;;3.15;;
51034;SDS011;37062;52.546;13.230;2022-07-29T01:10:54;8.07;;;3.13;;
51034;SDS011;37062;52.546;13.230;2022-07-29T01:13:21;23.02;;;3.08;;
51034;SDS011;37062;52.546;13.230;2022-07-29T01:15:51;4.32;;;2.97;;
51034;SDS011;37062;52.546;13.230;2022-07-29T01:18:24;5.38;;;3.33;;
51034;SDS011;37062;52.546;13.230;2022-07-29T01:24:11;6.93;;;3.13;;
51034;SDS011;37062;52.546;13.230;2022-07-29T01:26:52;5.45;;;3.03;;
51034;SDS011;37062;52.546;13.230;2022-07-29T01:29:26;4.72;;;2.60;;
51034;SDS011;37062;52.546;13.230;2022-07-29T01:31:56;6.45;;;3.33;;
51034;SDS011;37062;52.546;13.230;2022-07-29T01:34:29;4.95;;;2.65;;
51034;SDS011;37062;52.546;13.230;2022-07-29T01:37:03;6.38;;;3.30;;
51034;SDS011;37062;52.546;13.230;2022-07-29T01:39:35;9.95;;;3.15;;
51034;SDS011;37062;52.546;13.230;2022-07-29T01:42:06;4.57;;;3.03;;
51034;SDS011;37062;52.546;13.230;2022-07-29T01:44:41;5.15;;;3.05;;
51034;SDS011;37062;52.546;13.230;2022-07-29T01:47:16;5.55;;;3.22;;
51034;SDS011;37062;52.546;13.230;2022-07-29T01:49:47;5.47;;;3.25;;
51034;SDS011;37062;52.546;13.230;2022-07-29T01:52:19;6.30;;;2.88;;
51034;SDS011;37062;52.546;13.230;2022-07-29T01:54:51;5.50;;;2.90;;
51034;SDS011;37062;52.546;13.230;2022-07-29T01:57:23;7.35;;;3.13;;
51034;SDS011;37062;52.546;13.230;2022-07-29T01:59:53;5.80;;;3.03;;
51034;SDS011;37062;52.546;13.230;2022-07-29T02:02:22;6.88;;;3.17;;
51034;SDS011;37062;52.546;13.230;2022-07-29T02:04:50;8.65;;;3.17;;
51034;SDS011;37062;52.546;13.230;2022-07-29T02:07:20;8.77;;;3.30;;
51034;SDS011;37062;52.546;13.230;2022-07-29T02:09:50;4.65;;;2.80;;
51034;SDS011;37062;52.546;13.230;2022-07-29T02:12:19;4.60;;;2.90;;
51034;SDS011;37062;52.546;13.230;2022-07-29T02:14:49;10.15;;;3.40;;
51034;SDS011;37062;52.546;13.230;2022-07-29T02:17:21;6.30;;;3.13;;
51034;SDS011;37062;52.546;13.230;2022-07-29T02:19:51;4.10;;;2.88;;
51034;SDS011;37062;52.546;13.230;2022-07-29T02:22:22;6.85;;;3.00;;
51034;SDS011;37062;52.546;13.230;2022-07-29T02:24:50;6.95;;;3.25;;
51034;SDS011;37062;52.546;13.230;2022-07-29T02:27:19;5.05;;;2.78;;
51034;SDS011;37062;52.546;13.230;2022-07-29T02:29:47;6.28;;;3.50;;
51034;SDS011;37062;52.546;13.230;2022-07-29T02:32:15;6.68;;;3.38;;
51034;SDS011;37062;52.546;13.230;2022-07-29T02:34:45;6.75;;;3.42;;
51034;SDS011;37062;52.546;13.230;2022-07-29T02:37:13;3.90;;;2.88;;
51034;SDS011;37062;52.546;13.230;2022-07-29T02:39:43;5.22;;;3.00;;
51034;SDS011;37062;52.546;13.230;2022-07-29T02:42:11;5.22;;;3.15;;
51034;SDS011;37062;52.546;13.230;2022-07-29T02:44:40;6.20;;;2.63;;
51034;SDS011;37062;52.546;13.230;2022-07-29T02:47:10;4.30;;;2.50;;
51034;SDS011;37062;52.546;13.230;2022-07-29T02:49:43;6.30;;;2.70;;
51034;SDS011;37062;52.546;13.230;2022-07-29T02:52:19;7.43;;;2.80;;
51034;SDS011;37062;52.546;13.230;2022-07-29T02:54:51;6.75;;;3.05;;
51034;SDS011;37062;52.546;13.230;2022-07-29T02:57:28;7.78;;;2.63;;
51034;SDS011;37062;52.546;13.230;2022-07-29T03:00:00;6.45;;;2.70;;
51034;SDS011;37062;52.546;13.230;2022-07-29T03:02:31;6.60;;;2.95;;
51034;SDS011;37062;52.546;13.230;2022-07-29T03:05:03;6.78;;;2.97;;
51034;SDS011;37062;52.546;13.230;2022-07-29T03:07:33;6.15;;;2.80;;
51034;SDS011;37062;52.546;13.230;2022-07-29T03:10:01;5.40;;;2.70;;
51034;SDS011;37062;52.546;13.230;2022-07-29T03:12:29;4.55;;;2.72;;
51034;SDS011;37062;52.546;13.230;2022-07-29T03:14:57;7.85;;;3.05;;
51034;SDS011;37062;52.546;13.230;2022-07-29T03:17:25;5.38;;;2.67;;
51034;SDS011;37062;52.546;13.230;2022-07-29T03:19:52;5.05;;;2.90;;
51034;SDS011;37062;52.546;13.230;2022-07-29T03:22:22;7.30;;;2.90;;
51034;SDS011;37062;52.546;13.230;2022-07-29T03:24:49;7.55;;;2.85;;
51034;SDS011;37062;52.546;13.230;2022-07-29T03:27:16;8.40;;;2.83;;
51034;SDS011;37062;52.546;13.230;2022-07-29T03:29:43;6.40;;;3.00;;
51034;SDS011;37062;52.546;13.230;2022-07-29T03:32:10;6.88;;;2.80;;
51034;SDS011;37062;52.546;13.230;2022-07-29T03:34:37;10.20;;;3.30;;
51034;SDS011;37062;52.546;13.230;2022-07-29T03:37:04;5.45;;;2.78;;
51034;SDS011;37062;52.546;13.230;2022-07-29T03:39:35;7.78;;;2.97;;
51034;SDS011;37062;52.546;13.230;2022-07-29T03:42:05;5.78;;;2.47;;
51034;SDS011;37062;52.546;13.230;2022-07-29T03:44:34;5.63;;;2.60;;
51034;SDS011;37062;52.546;13.230;2022-07-29T03:47:03;5.05;;;2.72;;
51034;SDS011;37062;52.546;13.230;2022-07-29T03:49:31;5.13;;;2.83;;
51034;SDS011;37062;52.546;13.230;2022-07-29T03:52:02;5.38;;;2.90;;
51034;SDS011;37062;52.546;13.230;2022-07-29T03:54:30;4.30;;;2.40;;
51034;SDS011;37062;52.546;13.230;2022-07-29T03:56:59;8.70;;;3.78;;
51034;SDS011;37062;52.546;13.230;2022-07-29T03:59:31;5.90;;;3.30;;
51034;SDS011;37062;52.546;13.230;2022-07-29T04:01:59;6.15;;;2.65;;
51034;SDS011;37062;52.546;13.230;2022-07-29T04:04:29;3.33;;;2.25;;
51034;SDS011;37062;52.546;13.230;2022-07-29T04:06:59;3.97;;;2.92;;
51034;SDS011;37062;52.546;13.230;2022-07-29T04:09:27;5.07;;;2.70;;
51034;SDS011;37062;52.546;13.230;2022-07-29T04:11:54;4.57;;;2.80;;
51034;SDS011;37062;52.546;13.230;2022-07-29T04:14:22;7.35;;;3.13;;
51034;SDS011;37062;52.546;13.230;2022-07-29T04:16:49;7.30;;;2.88;;
51034;SDS011;37062;52.546;13.230;2022-07-29T04:19:16;4.03;;;2.65;;
51034;SDS011;37062;52.546;13.230;2022-07-29T04:21:43;4.50;;;2.72;;
51034;SDS011;37062;52.546;13.230;2022-07-29T04:24:10;3.58;;;2.60;;
51034;SDS011;37062;52.546;13.230;2022-07-29T04:26:37;6.82;;;2.85;;
51034;SDS011;37062;52.546;13.230;2022-07-29T04:29:04;5.93;;;2.90;;
51034;SDS011;37062;52.546;13.230;2022-07-29T04:31:32;9.05;;;3.03;;
51034;SDS011;37062;52.546;13.230;2022-07-29T04:33:59;10.02;;;3.50;;
51034;SDS011;37062;52.546;13.230;2022-07-29T04:36:26;4.88;;;3.15;;
51034;SDS011;37062;52.546;13.230;2022-07-29T04:38:53;7.25;;;2.70;;
51034;SDS011;37062;52.546;13.230;2022-07-29T04:41:20;4.20;;;2.90;;
51034;SDS011;37062;52.546;13.230;2022-07-29T04:43:47;6.95;;;3.13;;
51034;SDS011;37062;52.546;13.230;2022-07-29T04:46:14;6.22;;;2.85;;
51034;SDS011;37062;52.546;13.230;2022-07-29T04:48:43;4.63;;;2.72;;
51034;SDS011;37062;52.546;13.230;2022-07-29T04:51:12;7.55;;;2.80;;
51034;SDS011;37062;52.546;13.230;2022-07-29T04:53:39;5.95;;;2.72;;
51034;SDS011;37062;52.546;13.230;2022-07-29T04:56:06;8.07;;;2.95;;
51034;SDS011;37062;52.546;13.230;2022-07-29T04:58:33;6.90;;;2.80;;
51034;SDS011;37062;52.546;13.230;2022-07-29T05:01:02;5.13;;;2.50;;
51034;SDS011;37062;52.546;13.230;2022-07-29T05:03:29;6.78;;;2.90;;
51034;SDS011;37062;52.546;13.230;2022-07-29T05:05:57;7.35;;;2.50;;
51034;SDS011;37062;52.546;13.230;2022-07-29T05:08:24;5.50;;;2.53;;
51034;SDS011;37062;52.546;13.230;2022-07-29T05:10:51;7.45;;;2.70;;
51034;SDS011;37062;52.546;13.230;2022-07-29T05:13:19;5.57;;;2.40;;
51034;SDS011;37062;52.546;13.230;2022-07-29T05:15:46;9.80;;;3.17;;
51034;SDS011;37062;52.546;13.230;2022-07-29T05:18:14;5.10;;;2.70;;
51034;SDS011;37062;52.546;13.230;2022-07-29T05:20:41;3.92;;;2.17;;
51034;SDS011;37062;52.546;13.230;2022-07-29T05:23:09;5.15;;;2.88;;
51034;SDS011;37062;52.546;13.230;2022-07-29T05:25:37;5.13;;;2.53;;
51034;SDS011;37062;52.546;13.230;2022-07-29T05:28:05;4.90;;;2.50;;
51034;SDS011;37062;52.546;13.230;2022-07-29T05:30:32;6.10;;;2.42;;
51034;SDS011;37062;52.546;13.230;2022-07-29T05:32:59;9.10;;;2.88;;
51034;SDS011;37062;52.546;13.230;2022-07-29T05:35:26;8.85;;;2.40;;
51034;SDS011;37062;52.546;13.230;2022-07-29T05:37:53;6.03;;;2.90;;
51034;SDS011;37062;52.546;13.230;2022-07-29T05:40:21;4.95;;;2.50;;
51034;SDS011;37062;52.546;13.230;2022-07-29T05:42:48;6.43;;;2.60;;
51034;SDS011;37062;52.546;13.230;2022-07-29T05:45:15;11.30;;;2.50;;
51034;SDS011;37062;52.546;13.230;2022-07-29T05:47:42;4.88;;;2.30;;
51034;SDS011;37062;52.546;13.230;2022-07-29T05:50:10;5.50;;;2.70;;
51034;SDS011;37062;52.546;13.230;2022-07-29T05:52:37;6.68;;;2.58;;
51034;SDS011;37062;52.546;13.230;2022-07-29T05:55:04;5.43;;;2.83;;
51034;SDS011;37062;52.546;13.230;2022-07-29T05:57:33;4.72;;;2.47;;
51034;SDS011;37062;52.546;13.230;2022-07-29T06:00:00;7.63;;;2.63;;
51034;SDS011;37062;52.546;13.230;2022-07-29T06:02:37;4.90;;;2.55;;
51034;SDS011;37062;52.546;13.230;2022-07-29T06:05:04;8.18;;;2.80;;
51034;SDS011;37062;52.546;13.230;2022-07-29T06:07:32;6.78;;;2.90;;
51034;SDS011;37062;52.546;13.230;2022-07-29T06:09:59;7.85;;;2.60;;
51034;SDS011;37062;52.546;13.230;2022-07-29T06:12:26;11.43;;;2.60;;
51034;SDS011;37062;52.546;13.230;2022-07-29T06:14:55;6.13;;;2.40;;
51034;SDS011;37062;52.546;13.230;2022-07-29T06:17:22;7.32;;;2.65;;
51034;SDS011;37062;52.546;13.230;2022-07-29T06:19:49;5.57;;;2.63;;
51034;SDS011;37062;52.546;13.230;2022-07-29T06:22:16;6.18;;;2.60;;
51034;SDS011;37062;52.546;13.230;2022-07-29T06:24:43;6.50;;;2.88;;
51034;SDS011;37062;52.546;13.230;2022-07-29T06:27:10;6.70;;;2.97;;
51034;SDS011;37062;52.546;13.230;2022-07-29T06:29:37;4.03;;;2.53;;
51034;SDS011;37062;52.546;13.230;2022-07-29T06:32:06;6.45;;;2.97;;
51034;SDS011;37062;52.546;13.230;2022-07-29T06:34:34;3.85;;;2.50;;
51034;SDS011;37062;52.546;13.230;2022-07-29T06:37:05;4.45;;;2.63;;
51034;SDS011;37062;52.546;13.230;2022-07-29T06:39:33;7.07;;;2.70;;
51034;SDS011;37062;52.546;13.230;2022-07-29T06:42:01;5.78;;;2.38;;
51034;SDS011;37062;52.546;13.230;2022-07-29T06:44:29;4.35;;;2.25;;
51034;SDS011;37062;52.546;13.230;2022-07-29T06:46:58;5.97;;;2.50;;
51034;SDS011;37062;52.546;13.230;2022-07-29T06:49:27;5.13;;;2.47;;
51034;SDS011;37062;52.546;13.230;2022-07-29T06:51:54;7.28;;;2.47;;
51034;SDS011;37062;52.546;13.230;2022-07-29T06:54:21;6.85;;;2.55;;
51034;SDS011;37062;52.546;13.230;2022-07-29T06:56:48;6.00;;;2.72;;
51034;SDS011;37062;52.546;13.230;2022-07-29T06:59:15;11.93;;;2.75;;
51034;SDS011;37062;52.546;13.230;2022-07-29T07:01:42;8.10;;;2.75;;
51034;SDS011;37062;52.546;13.230;2022-07-29T07:04:09;7.05;;;2.30;;
51034;SDS011;37062;52.546;13.230;2022-07-29T07:06:38;5.65;;;2.53;;
51034;SDS011;37062;52.546;13.230;2022-07-29T07:09:06;6.70;;;2.72;;
51034;SDS011;37062;52.546;13.230;2022-07-29T07:11:33;10.07;;;2.85;;
51034;SDS011;37062;52.546;13.230;2022-07-29T07:14:00;8.43;;;2.95;;
51034;SDS011;37062;52.546;13.230;2022-07-29T07:16:27;7.22;;;2.60;;
51034;SDS011;37062;52.546;13.230;2022-07-29T07:18:54;6.45;;;2.70;;
51034;SDS011;37062;52.546;13.230;2022-07-29T07:21:21;6.68;;;2.47;;
51034;SDS011;37062;52.546;13.230;2022-07-29T07:23:49;4.85;;;2.35;;
51034;SDS011;37062;52.546;13.230;2022-07-29T07:26:16;5.18;;;2.60;;
51034;SDS011;37062;52.546;13.230;2022-07-29T07:28:44;7.00;;;2.20;;
51034;SDS011;37062;52.546;13.230;2022-07-29T07:31:11;6.18;;;2.40;;
51034;SDS011;37062;52.546;13.230;2022-07-29T07:33:38;5.18;;;2.63;;
51034;SDS011;37062;52.546;13.230;2022-07-29T07:36:05;5.43;;;2.60;;
51034;SDS011;37062;52.546;13.230;2022-07-29T07:38:32;5.85;;;2.30;;
51034;SDS011;37062;52.546;13.230;2022-07-29T07:41:04;4.55;;;2.53;;
51034;SDS011;37062;52.546;13.230;2022-07-29T07:43:31;3.40;;;2.30;;
51034;SDS011;37062;52.546;13.230;2022-07-29T07:45:59;6.57;;;2.28;;
51034;SDS011;37062;52.546;13.230;2022-07-29T07:48:28;4.78;;;2.38;;
51034;SDS011;37062;52.546;13.230;2022-07-29T07:50:55;6.47;;;2.60;;
51034;SDS011;37062;52.546;13.230;2022-07-29T07:53:22;4.78;;;2.78;;
51034;SDS011;37062;52.546;13.230;2022-07-29T07:55:49;22.00;;;3.35;;
51034;SDS011;37062;52.546;13.230;2022-07-29T07:58:17;11.38;;;3.22;;
51034;SDS011;37062;52.546;13.230;2022-07-29T08:00:44;7.68;;;2.40;;
51034;SDS011;37062;52.546;13.230;2022-07-29T08:03:12;6.88;;;2.40;;
51034;SDS011;37062;52.546;13.230;2022-07-29T08:05:39;5.63;;;2.30;;
51034;SDS011;37062;52.546;13.230;2022-07-29T08:08:06;4.65;;;2.30;;
51034;SDS011;37062;52.546;13.230;2022-07-29T08:10:33;4.95;;;2.47;;
51034;SDS011;37062;52.546;13.230;2022-07-29T08:13:22;7.65;;;2.25;;
51034;SDS011;37062;52.546;13.230;2022-07-29T08:15:53;7.25;;;2.45;;
51034;SDS011;37062;52.546;13.230;2022-07-29T08:18:24;10.88;;;2.40;;
51034;SDS011;37062;52.546;13.230;2022-07-29T08:20:51;5.93;;;2.30;;
51034;SDS011;37062;52.546;13.230;2022-07-29T08:23:19;7.50;;;2.30;;
51034;SDS011;37062;52.546;13.230;2022-07-29T08:25:46;5.57;;;2.20;;
51034;SDS011;37062;52.546;13.230;2022-07-29T08:28:13;5.47;;;1.77;;
51034;SDS011;37062;52.546;13.230;2022-07-29T08:30:42;6.07;;;2.25;;
51034;SDS011;37062;52.546;13.230;2022-07-29T08:33:08;6.82;;;2.00;;
51034;SDS011;37062;52.546;13.230;2022-07-29T08:35:35;8.95;;;2.10;;
51034;SDS011;37062;52.546;13.230;2022-07-29T08:38:02;2.55;;;1.80;;
51034;SDS011;37062;52.546;13.230;2022-07-29T08:40:29;6.10;;;2.03;;
51034;SDS011;37062;52.546;13.230;2022-07-29T08:42:56;3.35;;;1.85;;
51034;SDS011;37062;52.546;13.230;2022-07-29T08:45:23;3.15;;;1.77;;
51034;SDS011;37062;52.546;13.230;2022-07-29T08:47:53;3.50;;;1.63;;
51034;SDS011;37062;52.546;13.230;2022-07-29T08:50:22;4.22;;;1.75;;
51034;SDS011;37062;52.546;13.230;2022-07-29T08:52:49;8.10;;;1.92;;
51034;SDS011;37062;52.546;13.230;2022-07-29T08:55:17;3.88;;;1.70;;
51034;SDS011;37062;52.546;13.230;2022-07-29T08:57:44;6.65;;;2.25;;
51034;SDS011;37062;52.546;13.230;2022-07-29T09:00:12;5.55;;;1.80;;
51034;SDS011;37062;52.546;13.230;2022-07-29T09:02:39;6.53;;;2.03;;
51034;SDS011;37062;52.546;13.230;2022-07-29T09:05:12;5.03;;;2.42;;
51034;SDS011;37062;52.546;13.230;2022-07-29T09:07:41;5.30;;;2.30;;
51034;SDS011;37062;52.546;13.230;2022-07-29T09:10:20;3.50;;;1.50;;
51034;SDS011;37062;52.546;13.230;2022-07-29T09:12:47;3.33;;;1.80;;
51034;SDS011;37062;52.546;13.230;2022-07-29T09:15:14;3.45;;;1.67;;
51034;SDS011;37062;52.546;13.230;2022-07-29T09:17:42;4.65;;;1.83;;
51034;SDS011;37062;52.546;13.230;2022-07-29T09:20:13;8.32;;;1.92;;
51034;SDS011;37062;52.546;13.230;2022-07-29T09:22:41;9.77;;;2.08;;
51034;SDS011;37062;52.546;13.230;2022-07-29T09:25:08;6.38;;;1.73;;
51034;SDS011;37062;52.546;13.230;2022-07-29T09:27:38;4.15;;;1.73;;
51034;SDS011;37062;52.546;13.230;2022-07-29T09:30:06;1.92;;;1.60;;
51034;SDS011;37062;52.546;13.230;2022-07-29T09:32:53;7.63;;;1.80;;
51034;SDS011;37062;52.546;13.230;2022-07-29T09:35:23;12.10;;;2.10;;
51034;SDS011;37062;52.546;13.230;2022-07-29T09:37:51;5.97;;;1.77;;
51034;SDS011;37062;52.546;13.230;2022-07-29T09:40:19;3.35;;;1.80;;
51034;SDS011;37062;52.546;13.230;2022-07-29T09:42:47;7.28;;;1.67;;
51034;SDS011;37062;52.546;13.230;2022-07-29T09:45:25;4.28;;;2.03;;
51034;SDS011;37062;52.546;13.230;2022-07-29T09:47:54;2.83;;;1.80;;
51034;SDS011;37062;52.546;13.230;2022-07-29T09:50:35;7.38;;;1.65;;
51034;SDS011;37062;52.546;13.230;2022-07-29T09:53:03;4.25;;;2.17;;
51034;SDS011;37062;52.546;13.230;2022-07-29T09:55:30;7.38;;;1.80;;
51034;SDS011;37062;52.546;13.230;2022-07-29T10:00:43;3.42;;;1.95;;
51034;SDS011;37062;52.546;13.230;2022-07-29T10:03:11;3.65;;;1.70;;
51034;SDS011;37062;52.546;13.230;2022-07-29T10:05:40;6.68;;;1.80;;
51034;SDS011;37062;52.546;13.230;2022-07-29T10:08:07;4.05;;;1.80;;
51034;SDS011;37062;52.546;13.230;2022-07-29T10:10:35;5.18;;;1.90;;
51034;SDS011;37062;52.546;13.230;2022-07-29T10:13:05;3.22;;;1.42;;
51034;SDS011;37062;52.546;13.230;2022-07-29T10:15:35;2.65;;;1.58;;
51034;SDS011;37062;52.546;13.230;2022-07-29T10:18:04;3.75;;;1.50;;
51034;SDS011;37062;52.546;13.230;2022-07-29T10:20:31;6.22;;;1.73;;
51034;SDS011;37062;52.546;13.230;2022-07-29T10:23:00;7.00;;;2.00;;
51034;SDS011;37062;52.546;13.230;2022-07-29T10:25:27;4.20;;;1.70;;
51034;SDS011;37062;52.546;13.230;2022-07-29T10:27:54;4.63;;;1.60;;
51034;SDS011;37062;52.546;13.230;2022-07-29T10:30:22;4.85;;;2.00;;
51034;SDS011;37062;52.546;13.230;2022-07-29T10:32:54;6.97;;;1.55;;
51034;SDS011;37062;52.546;13.230;2022-07-29T10:35:44;7.32;;;1.90;;
51034;SDS011;37062;52.546;13.230;2022-07-29T10:38:30;4.15;;;1.70;;
51034;SDS011;37062;52.546;13.230;2022-07-29T10:44:15;5.97;;;1.52;;
51034;SDS011;37062;52.546;13.230;2022-07-29T10:46:44;5.70;;;1.67;;
51034;SDS011;37062;52.546;13.230;2022-07-29T10:49:12;1.95;;;1.48;;
51034;SDS011;37062;52.546;13.230;2022-07-29T10:52:00;2.67;;;1.50;;
51034;SDS011;37062;52.546;13.230;2022-07-29T10:54:46;2.70;;;1.20;;
51034;SDS011;37062;52.546;13.230;2022-07-29T10:57:25;4.38;;;1.58;;
51034;SDS011;37062;52.546;13.230;2022-07-29T11:02:57;4.57;;;1.77;;
51034;SDS011;37062;52.546;13.230;2022-07-29T11:05:25;2.25;;;1.50;;
51034;SDS011;37062;52.546;13.230;2022-07-29T11:10:50;5.78;;;1.60;;
51034;SDS011;37062;52.546;13.230;2022-07-29T11:16:13;2.45;;;1.70;;
51034;SDS011;37062;52.546;13.230;2022-07-29T11:21:45;5.70;;;1.63;;
51034;SDS011;37062;52.546;13.230;2022-07-29T11:24:15;2.70;;;1.77;;
51034;SDS011;37062;52.546;13.230;2022-07-29T11:26:45;2.83;;;1.40;;
51034;SDS011;37062;52.546;13.230;2022-07-29T11:29:32;7.78;;;1.73;;
51034;SDS011;37062;52.546;13.230;2022-07-29T11:32:07;4.03;;;1.50;;
51034;SDS011;37062;52.546;13.230;2022-07-29T11:34:35;6.97;;;2.35;;
51034;SDS011;37062;52.546;13.230;2022-07-29T11:37:16;4.32;;;1.55;;
51034;SDS011;37062;52.546;13.230;2022-07-29T11:39:44;7.28;;;2.00;;
51034;SDS011;37062;52.546;13.230;2022-07-29T11:45:11;2.45;;;1.70;;
51034;SDS011;37062;52.546;13.230;2022-07-29T11:47:41;4.70;;;1.98;;
51034;SDS011;37062;52.546;13.230;2022-07-29T11:50:14;6.22;;;2.13;;
51034;SDS011;37062;52.546;13.230;2022-07-29T11:52:44;3.20;;;1.83;;
51034;SDS011;37062;52.546;13.230;2022-07-29T11:55:13;2.80;;;1.70;;
51034;SDS011;37062;52.546;13.230;2022-07-29T11:57:49;3.85;;;2.00;;
51034;SDS011;37062;52.546;13.230;2022-07-29T12:00:22;5.35;;;2.00;;
51034;SDS011;37062;52.546;13.230;2022-07-29T12:02:51;5.03;;;2.00;;
51034;SDS011;37062;52.546;13.230;2022-07-29T12:05:18;6.68;;;2.05;;
51034;SDS011;37062;52.546;13.230;2022-07-29T12:07:46;5.65;;;2.30;;
51034;SDS011;37062;52.546;13.230;2022-07-29T12:10:14;3.88;;;2.25;;
51034;SDS011;37062;52.546;13.230;2022-07-29T12:12:41;3.35;;;1.90;;
51034;SDS011;37062;52.546;13.230;2022-07-29T12:15:14;2.75;;;2.17;;
51034;SDS011;37062;52.546;13.230;2022-07-29T12:17:45;5.20;;;2.30;;
51034;SDS011;37062;52.546;13.230;2022-07-29T12:20:13;5.18;;;1.90;;
51034;SDS011;37062;52.546;13.230;2022-07-29T12:22:47;5.13;;;2.15;;
51034;SDS011;37062;52.546;13.230;2022-07-29T12:25:15;4.25;;;1.90;;
51034;SDS011;37062;52.546;13.230;2022-07-29T12:27:44;4.13;;;1.92;;
51034;SDS011;37062;52.546;13.230;2022-07-29T12:30:11;5.90;;;2.38;;
51034;SDS011;37062;52.546;13.230;2022-07-29T12:32:41;2.90;;;1.95;;
51034;SDS011;37062;52.546;13.230;2022-07-29T12:35:10;6.60;;;2.28;;
51034;SDS011;37062;52.546;13.230;2022-07-29T12:37:40;4.88;;;2.10;;
51034;SDS011;37062;52.546;13.230;2022-07-29T12:40:09;6.60;;;2.13;;
51034;SDS011;37062;52.546;13.230;2022-07-29T12:42:38;5.38;;;2.03;;
51034;SDS011;37062;52.546;13.230;2022-07-29T12:45:06;5.20;;;2.17;;
51034;SDS011;37062;52.546;13.230;2022-07-29T12:47:37;5.22;;;2.17;;
51034;SDS011;37062;52.546;13.230;2022-07-29T12:50:18;5.10;;;2.00;;
51034;SDS011;37062;52.546;13.230;2022-07-29T12:52:45;5.40;;;2.60;;
51034;SDS011;37062;52.546;13.230;2022-07-29T12:55:13;6.05;;;2.35;;
51034;SDS011;37062;52.546;13.230;2022-07-29T12:57:44;4.43;;;2.10;;
51034;SDS011;37062;52.546;13.230;2022-07-29T13:00:12;7.97;;;2.15;;
51034;SDS011;37062;52.546;13.230;2022-07-29T13:02:42;3.72;;;2.35;;
51034;SDS011;37062;52.546;13.230;2022-07-29T13:05:09;4.50;;;2.53;;
51034;SDS011;37062;52.546;13.230;2022-07-29T13:07:37;2.92;;;2.38;;
51034;SDS011;37062;52.546;13.230;2022-07-29T13:10:10;7.32;;;2.72;;
51034;SDS011;37062;52.546;13.230;2022-07-29T13:12:39;3.65;;;2.40;;
51034;SDS011;37062;52.546;13.230;2022-07-29T13:15:21;5.40;;;2.55;;
51034;SDS011;37062;52.546;13.230;2022-07-29T13:17:49;5.57;;;2.28;;
51034;SDS011;37062;52.546;13.230;2022-07-29T13:20:16;2.60;;;2.00;;
51034;SDS011;37062;52.546;13.230;2022-07-29T13:22:46;2.67;;;2.17;;
51034;SDS011;37062;52.546;13.230;2022-07-29T13:25:14;4.05;;;2.13;;
51034;SDS011;37062;52.546;13.230;2022-07-29T13:27:50;3.47;;;2.45;;
51034;SDS011;37062;52.546;13.230;2022-07-29T13:30:19;4.82;;;2.33;;
51034;SDS011;37062;52.546;13.230;2022-07-29T13:32:47;3.38;;;2.25;;
51034;SDS011;37062;52.546;13.230;2022-07-29T13:35:16;5.13;;;2.60;;
51034;SDS011;37062;52.546;13.230;2022-07-29T13:37:43;3.08;;;2.20;;
51034;SDS011;37062;52.546;13.230;2022-07-29T13:40:11;3.95;;;2.47;;
51034;SDS011;37062;52.546;13.230;2022-07-29T13:42:39;5.22;;;2.10;;
51034;SDS011;37062;52.546;13.230;2022-07-29T13:45:06;5.43;;;2.38;;
51034;SDS011;37062;52.546;13.230;2022-07-29T13:47:34;5.97;;;2.30;;
51034;SDS011;37062;52.546;13.230;2022-07-29T13:50:03;7.82;;;2.58;;
51034;SDS011;37062;52.546;13.230;2022-07-29T13:52:32;8.25;;;2.53;;
51034;SDS011;37062;52.546;13.230;2022-07-29T13:55:00;7.38;;;2.90;;
51034;SDS011;37062;52.546;13.230;2022-07-29T13:57:27;4.88;;;2.40;;
51034;SDS011;37062;52.546;13.230;2022-07-29T13:59:54;2.58;;;2.13;;
51034;SDS011;37062;52.546;13.230;2022-07-29T14:02:21;4.38;;;2.55;;
51034;SDS011;37062;52.546;13.230;2022-07-29T14:04:49;11.10;;;2.60;;
51034;SDS011;37062;52.546;13.230;2022-07-29T14:07:17;4.53;;;2.55;;
51034;SDS011;37062;52.546;13.230;2022-07-29T14:09:44;3.33;;;2.35;;
51034;SDS011;37062;52.546;13.230;2022-07-29T14:12:11;6.18;;;2.67;;
51034;SDS011;37062;52.546;13.230;2022-07-29T14:14:38;4.85;;;2.53;;
51034;SDS011;37062;52.546;13.230;2022-07-29T14:17:06;7.32;;;2.55;;
51034;SDS011;37062;52.546;13.230;2022-07-29T14:19:33;3.10;;;2.17;;
51034;SDS011;37062;52.546;13.230;2022-07-29T14:22:03;2.88;;;2.22;;
51034;SDS011;37062;52.546;13.230;2022-07-29T14:24:32;3.17;;;2.33;;
51034;SDS011;37062;52.546;13.230;2022-07-29T14:26:59;5.95;;;2.38;;
51034;SDS011;37062;52.546;13.230;2022-07-29T14:29:26;5.45;;;2.33;;
51034;SDS011;37062;52.546;13.230;2022-07-29T14:31:53;6.38;;;2.40;;
51034;SDS011;37062;52.546;13.230;2022-07-29T14:34:20;9.13;;;2.88;;
51034;SDS011;37062;52.546;13.230;2022-07-29T14:36:47;7.70;;;2.53;;
51034;SDS011;37062;52.546;13.230;2022-07-29T14:39:14;3.03;;;2.13;;
51034;SDS011;37062;52.546;13.230;2022-07-29T14:41:43;3.80;;;2.13;;
51034;SDS011;37062;52.546;13.230;2022-07-29T14:44:10;4.72;;;2.53;;
51034;SDS011;37062;52.546;13.230;2022-07-29T14:46:37;5.20;;;2.40;;
51034;SDS011;37062;52.546;13.230;2022-07-29T14:49:05;4.07;;;2.60;;
51034;SDS011;37062;52.546;13.230;2022-07-29T14:51:32;4.15;;;2.42;;
51034;SDS011;37062;52.546;13.230;2022-07-29T14:53:59;4.95;;;2.70;;
51034;SDS011;37062;52.546;13.230;2022-07-29T14:56:26;3.85;;;2.65;;
51034;SDS011;37062;52.546;13.230;2022-07-29T14:58:56;6.47;;;2.22;;
51034;SDS011;37062;52.546;13.230;2022-07-29T15:01:23;4.38;;;2.30;;
51034;SDS011;37062;52.546;13.230;2022-07-29T15:03:50;9.57;;;2.70;;
51034;SDS011;37062;52.546;13.230;2022-07-29T15:06:17;2.97;;;2.17;;
51034;SDS011;37062;52.546;13.230;2022-07-29T15:08:44;3.95;;;2.13;;